sensor_id;sensor_type;location;lat;lon;timestamp;pressure;altitude;pressure_sealevel;temperature;humidity
3142;BME280;1581;51.568;6.998;2023-04-01T00:02:15;98584.47;;;10.72;100.00
3142;BME280;1581;51.568;6.998;2023-04-01T00:04:43;98582.72;;;10.50;100.00
3142;BME280;1581;51.568;6.998;2023-04-01T00:07:12;98586.78;;;10.52;100.00
3142;BME280;1581;51.568;6.998;2023-04-01T00:09:40;98592.34;;;10.51;100.00
3142;BME280;1581;51.568;6.998;2023-04-01T00:12:07;98582.97;;;10.48;100.00
3142;BME280;1581;51.568;6.998;2023-04-01T00:14:36;98584.13;;;10.52;100.00
3142;BME280;1581;51.568;6.998;2023-04-01T00:17:06;98594.84;;;10.57;100.00
3142;BME280;1581;51.568;6.998;2023-04-01T00:19:33;98577.69;;;10.81;100.00
3142;BME280;1581;51.568;6.998;2023-04-01T00:22:01;98582.84;;;10.55;100.00
3142;BME280;1581;51.568;6.998;2023-04-01T00:24:29;98584.28;;;10.46;100.00
3142;BME280;1581;51.568;6.998;2023-04-01T00:27:02;98589.09;;;10.49;100.00
3142;BME280;1581;51.568;6.998;2023-04-01T00:29:29;98579.88;;;10.40;100.00
3142;BME280;1581;51.568;6.998;2023-04-01T00:31:59;98578.13;;;10.45;100.00
3142;BME280;1581;51.568;6.998;2023-04-01T00:34:27;98582.75;;;10.66;100.00
3142;BME280;1581;51.568;6.998;2023-04-01T00:36:54;98580.56;;;10.63;100.00
3142;BME280;1581;51.568;6.998;2023-04-01T00:39:22;98575.97;;;10.59;100.00
3142;BME280;1581;51.568;6.998;2023-04-01T00:41:50;98572.41;;;10.53;100.00
3142;BME280;1581;51.568;6.998;2023-04-01T00:44:20;98582.69;;;10.61;100.00
3142;BME280;1581;51.568;6.998;2023-04-01T00:46:48;98579.19;;;10.61;100.00
3142;BME280;1581;51.568;6.998;2023-04-01T00:49:20;98576.78;;;10.59;100.00
3142;BME280;1581;51.568;6.998;2023-04-01T00:51:52;98578.97;;;10.62;100.00
3142;BME280;1581;51.568;6.998;2023-04-01T00:54:21;98568.13;;;10.69;100.00
3142;BME280;1581;51.568;6.998;2023-04-01T00:56:52;98578.56;;;10.70;100.00
3142;BME280;1581;51.568;6.998;2023-04-01T00:59:25;98577.69;;;10.81;100.00
3142;BME280;1581;51.568;6.998;2023-04-01T01:01:54;98563.53;;;10.64;100.00
3142;BME280;1581;51.568;6.998;2023-04-01T01:04:26;98582.19;;;10.64;100.00
3142;BME280;1581;51.568;6.998;2023-04-01T01:07:03;98574.28;;;10.69;100.00
3142;BME280;1581;51.568;6.998;2023-04-01T01:09:43;98577.09;;;10.63;100.00
3142;BME280;1581;51.568;6.998;2023-04-01T01:12:16;98575.56;;;10.50;100.00
3142;BME280;1581;51.568;6.998;2023-04-01T01:14:55;98576.84;;;10.64;100.00
3142;BME280;1581;51.568;6.998;2023-04-01T01:17:37;98580.50;;;10.58;100.00
3142;BME280;1581;51.568;6.998;2023-04-01T01:20:57;98567.97;;;10.42;100.00
3142;BME280;1581;51.568;6.998;2023-04-01T01:24:09;98579.44;;;10.59;100.00
3142;BME280;1581;51.568;6.998;2023-04-01T01:26:52;98565.84;;;10.44;100.00
3142;BME280;1581;51.568;6.998;2023-04-01T01:30:17;98562.41;;;10.44;100.00
3142;BME280;1581;51.568;6.998;2023-04-01T01:36:13;98556.97;;;10.39;100.00
3142;BME280;1581;51.568;6.998;2023-04-01T01:38:43;98557.56;;;10.41;100.00
3142;BME280;1581;51.568;6.998;2023-04-01T01:41:16;98556.25;;;10.27;100.00
3142;BME280;1581;51.568;6.998;2023-04-01T01:43:48;98557.97;;;10.49;100.00
3142;BME280;1581;51.568;6.998;2023-04-01T01:46:20;98556.97;;;10.39;100.00
3142;BME280;1581;51.568;6.998;2023-04-01T01:48:50;98551.19;;;10.58;100.00
3142;BME280;1581;51.568;6.998;2023-04-01T01:51:21;98547.56;;;10.64;100.00
3142;BME280;1581;51.568;6.998;2023-04-01T01:53:50;98540.44;;;10.53;100.00
3142;BME280;1581;51.568;6.998;2023-04-01T01:56:19;98549.41;;;10.47;100.00
3142;BME280;1581;51.568;6.998;2023-04-01T01:58:51;98552.66;;;10.49;100.00
3142;BME280;1581;51.568;6.998;2023-04-01T02:01:23;98544.50;;;10.39;100.00
3142;BME280;1581;51.568;6.998;2023-04-01T02:03:52;98550.28;;;10.36;100.00
3142;BME280;1581;51.568;6.998;2023-04-01T02:06:26;98549.09;;;10.44;100.00
3142;BME280;1581;51.568;6.998;2023-04-01T02:08:59;98546.09;;;10.40;100.00
3142;BME280;1581;51.568;6.998;2023-04-01T02:11:34;98547.22;;;10.28;100.00
3142;BME280;1581;51.568;6.998;2023-04-01T02:14:06;98550.78;;;10.50;100.00
3142;BME280;1581;51.568;6.998;2023-04-01T02:16:39;98555.13;;;10.39;100.00
3142;BME280;1581;51.568;6.998;2023-04-01T02:19:11;98551.91;;;10.37;100.00
3142;BME280;1581;51.568;6.998;2023-04-01T02:21:41;98559.88;;;10.37;100.00
3142;BME280;1581;51.568;6.998;2023-04-01T02:24:13;98561.91;;;10.30;100.00
3142;BME280;1581;51.568;6.998;2023-04-01T02:26:42;98559.88;;;10.37;100.00
3142;BME280;1581;51.568;6.998;2023-04-01T02:29:12;98559.50;;;10.45;100.00
3142;BME280;1581;51.568;6.998;2023-04-01T02:31:40;98561.81;;;10.42;100.00
3142;BME280;1581;51.568;6.998;2023-04-01T02:34:09;98555.06;;;10.51;100.00
3142;BME280;1581;51.568;6.998;2023-04-01T02:36:37;98552.06;;;10.47;100.00
3142;BME280;1581;51.568;6.998;2023-04-01T02:39:07;98560.47;;;10.39;100.00
3142;BME280;1581;51.568;6.998;2023-04-01T02:41:39;98563.91;;;10.40;100.00
3142;BME280;1581;51.568;6.998;2023-04-01T02:44:08;98569.03;;;10.41;100.00
3142;BME280;1581;51.568;6.998;2023-04-01T02:46:36;98567.16;;;10.42;100.00
3142;BME280;1581;51.568;6.998;2023-04-01T02:49:04;98568.31;;;10.46;100.00
3142;BME280;1581;51.568;6.998;2023-04-01T02:51:33;98570.97;;;10.46;100.00
3142;BME280;1581;51.568;6.998;2023-04-01T02:54:01;98567.88;;;10.37;100.00
3142;BME280;1581;51.568;6.998;2023-04-01T02:56:30;98576.25;;;10.29;100.00
3142;BME280;1581;51.568;6.998;2023-04-01T02:58:57;98573.84;;;10.28;100.00
3142;BME280;1581;51.568;6.998;2023-04-01T03:01:25;98575.97;;;10.15;100.00
3142;BME280;1581;51.568;6.998;2023-04-01T03:03:53;98577.69;;;10.21;100.00
3142;BME280;1581;51.568;6.998;2023-04-01T03:06:21;98589.22;;;10.26;100.00
3142;BME280;1581;51.568;6.998;2023-04-01T03:08:49;98585.34;;;10.33;100.00
3142;BME280;1581;51.568;6.998;2023-04-01T03:11:16;98588.53;;;10.30;100.00
3142;BME280;1581;51.568;6.998;2023-04-01T03:13:45;98582.22;;;10.36;100.00
3142;BME280;1581;51.568;6.998;2023-04-01T03:16:13;98583.13;;;10.42;100.00
3142;BME280;1581;51.568;6.998;2023-04-01T03:18:41;98586.03;;;10.40;100.00
3142;BME280;1581;51.568;6.998;2023-04-01T03:21:16;98594.84;;;10.57;100.00
3142;BME280;1581;51.568;6.998;2023-04-01T03:23:44;98585.19;;;10.51;100.00
3142;BME280;1581;51.568;6.998;2023-04-01T03:26:11;98595.50;;;10.48;100.00
3142;BME280;1581;51.568;6.998;2023-04-01T03:28:39;98588.53;;;10.30;100.00
3142;BME280;1581;51.568;6.998;2023-04-01T03:31:09;98595.28;;;10.22;100.00
3142;BME280;1581;51.568;6.998;2023-04-01T03:33:37;98596.28;;;10.48;100.00
3142;BME280;1581;51.568;6.998;2023-04-01T03:36:05;98593.19;;;10.40;100.00
3142;BME280;1581;51.568;6.998;2023-04-01T03:38:33;98593.50;;;10.27;100.00
3142;BME280;1581;51.568;6.998;2023-04-01T03:41:01;98590.94;;;10.32;100.00
3142;BME280;1581;51.568;6.998;2023-04-01T03:43:29;98595.31;;;10.38;100.00
3142;BME280;1581;51.568;6.998;2023-04-01T03:45:57;98596.25;;;10.32;100.00
3142;BME280;1581;51.568;6.998;2023-04-01T03:48:26;98591.00;;;10.21;100.00
3142;BME280;1581;51.568;6.998;2023-04-01T03:50:54;98590.09;;;10.15;100.00
3142;BME280;1581;51.568;6.998;2023-04-01T03:53:21;98601.09;;;10.35;100.00
3142;BME280;1581;51.568;6.998;2023-04-01T03:55:49;98596.00;;;10.33;100.00
3142;BME280;1581;51.568;6.998;2023-04-01T03:58:17;98594.06;;;10.29;100.00
3142;BME280;1581;51.568;6.998;2023-04-01T04:00:45;98589.56;;;10.29;100.00
3142;BME280;1581;51.568;6.998;2023-04-01T04:03:13;98598.19;;;10.36;100.00
3142;BME280;1581;51.568;6.998;2023-04-01T04:05:48;98596.53;;;10.47;100.00
3142;BME280;1581;51.568;6.998;2023-04-01T04:08:16;98603.31;;;10.38;100.00
3142;BME280;1581;51.568;6.998;2023-04-01T04:10:44;98596.97;;;10.27;100.00
3142;BME280;1581;51.568;6.998;2023-04-01T04:13:12;98604.06;;;10.22;100.00
3142;BME280;1581;51.568;6.998;2023-04-01T04:15:40;98603.16;;;10.17;100.00
3142;BME280;1581;51.568;6.998;2023-04-01T04:18:07;98608.53;;;10.33;100.00
3142;BME280;1581;51.568;6.998;2023-04-01T04:20:35;98604.97;;;10.27;100.00
3142;BME280;1581;51.568;6.998;2023-04-01T04:23:04;98612.03;;;10.22;100.00
3142;BME280;1581;51.568;6.998;2023-04-01T04:25:32;98608.72;;;10.15;100.00
3142;BME280;1581;51.568;6.998;2023-04-01T04:27:59;98604.06;;;10.22;100.00
3142;BME280;1581;51.568;6.998;2023-04-01T04:30:27;98608.78;;;10.20;100.00
3142;BME280;1581;51.568;6.998;2023-04-01T04:32:54;98614.69;;;10.22;100.00
3142;BME280;1581;51.568;6.998;2023-04-01T04:35:22;98620.03;;;10.22;100.00
3142;BME280;1581;51.568;6.998;2023-04-01T04:37:50;98616.63;;;10.38;100.00
3142;BME280;1581;51.568;6.998;2023-04-01T04:40:19;98618.06;;;10.45;100.00
3142;BME280;1581;51.568;6.998;2023-04-01T04:42:47;98616.13;;;10.41;100.00
3142;BME280;1581;51.568;6.998;2023-04-01T04:45:14;98614.63;;;10.33;100.00
3142;BME280;1581;51.568;6.998;2023-04-01T04:47:42;98619.22;;;10.49;100.00
3142;BME280;1581;51.568;6.998;2023-04-01T04:50:10;98625.59;;;10.48;100.00
3142;BME280;1581;51.568;6.998;2023-04-01T04:52:39;98626.56;;;10.42;100.00
3142;BME280;1581;51.568;6.998;2023-04-01T04:55:07;98625.06;;;10.35;100.00
3142;BME280;1581;51.568;6.998;2023-04-01T04:57:36;98626.06;;;10.45;100.00
3142;BME280;1581;51.568;6.998;2023-04-01T05:00:06;98627.06;;;10.28;100.00
3142;BME280;1581;51.568;6.998;2023-04-01T05:02:34;98628.53;;;10.35;100.00
3142;BME280;1581;51.568;6.998;2023-04-01T05:05:01;98631.50;;;10.23;100.00
3142;BME280;1581;51.568;6.998;2023-04-01T05:07:30;98635.59;;;10.30;100.00
3142;BME280;1581;51.568;6.998;2023-04-01T05:09:57;98633.84;;;10.35;100.00
3142;BME280;1581;51.568;6.998;2023-04-01T05:12:25;98640.13;;;10.29;100.00
3142;BME280;1581;51.568;6.998;2023-04-01T05:14:54;98637.72;;;10.28;100.00
3142;BME280;1581;51.568;6.998;2023-04-01T05:17:22;98640.22;;;10.34;100.00
3142;BME280;1581;51.568;6.998;2023-04-01T05:19:49;98633.44;;;10.27;100.00
3142;BME280;1581;51.568;6.998;2023-04-01T05:22:17;98638.69;;;10.38;100.00
3142;BME280;1581;51.568;6.998;2023-04-01T05:24:45;98638.78;;;10.43;100.00
3142;BME280;1581;51.568;6.998;2023-04-01T05:27:12;98640.31;;;10.39;100.00
3142;BME280;1581;51.568;6.998;2023-04-01T05:29:40;98638.94;;;10.37;100.00
3142;BME280;1581;51.568;6.998;2023-04-01T05:32:09;98640.47;;;10.33;100.00
3142;BME280;1581;51.568;6.998;2023-04-01T05:34:37;98646.13;;;10.36;100.00
3142;BME280;1581;51.568;6.998;2023-04-01T05:37:04;98645.84;;;10.49;100.00
3142;BME280;1581;51.568;6.998;2023-04-01T05:39:36;98650.50;;;10.42;100.00
3142;BME280;1581;51.568;6.998;2023-04-01T05:42:06;98655.38;;;10.62;100.00
3142;BME280;1581;51.568;6.998;2023-04-01T05:44:34;98654.63;;;10.50;100.00
3142;BME280;1581;51.568;6.998;2023-04-01T05:47:02;98653.31;;;10.36;100.00
3142;BME280;1581;51.568;6.998;2023-04-01T05:49:33;98659.00;;;10.28;100.00
3142;BME280;1581;51.568;6.998;2023-04-01T05:52:02;98647.47;;;10.23;100.00
3142;BME280;1581;51.568;6.998;2023-04-01T05:54:30;98655.19;;;10.24;100.00
3142;BME280;1581;51.568;6.998;2023-04-01T05:56:57;98656.19;;;10.34;100.00
3142;BME280;1581;51.568;6.998;2023-04-01T05:59:25;98655.16;;;10.35;100.00
3142;BME280;1581;51.568;6.998;2023-04-01T06:01:53;98656.38;;;10.44;100.00
3142;BME280;1581;51.568;6.998;2023-04-01T06:04:21;98663.00;;;10.42;100.00
3142;BME280;1581;51.568;6.998;2023-04-01T06:06:50;98661.56;;;10.51;100.00
3142;BME280;1581;51.568;6.998;2023-04-01T06:09:21;98665.56;;;10.37;100.00
3142;BME280;1581;51.568;6.998;2023-04-01T06:12:24;98667.53;;;10.41;100.00
3142;BME280;1581;51.568;6.998;2023-04-01T06:15:06;98666.03;;;10.34;100.00
3142;BME280;1581;51.568;6.998;2023-04-01T06:17:52;98671.88;;;10.47;100.00
3142;BME280;1581;51.568;6.998;2023-04-01T06:20:36;98677.22;;;10.47;100.00
3142;BME280;1581;51.568;6.998;2023-04-01T06:23:40;98680.38;;;10.33;100.00
3142;BME280;1581;51.568;6.998;2023-04-01T06:26:25;98675.59;;;10.46;100.00
3142;BME280;1581;51.568;6.998;2023-04-01T06:29:37;98680.63;;;10.31;100.00
3142;BME280;1581;51.568;6.998;2023-04-01T06:32:53;98686.19;;;10.30;100.00
3142;BME280;1581;51.568;6.998;2023-04-01T06:35:49;98686.94;;;10.42;100.00
3142;BME280;1581;51.568;6.998;2023-04-01T06:38:49;98684.75;;;10.39;100.00
3142;BME280;1581;51.568;6.998;2023-04-01T06:41:58;98679.69;;;10.37;100.00
3142;BME280;1581;51.568;6.998;2023-04-01T06:44:40;98691.38;;;10.36;100.00
3142;BME280;1581;51.568;6.998;2023-04-01T06:47:37;98681.38;;;10.43;100.00
3142;BME280;1581;51.568;6.998;2023-04-01T06:50:16;98688.13;;;10.34;100.00
3142;BME280;1581;51.568;6.998;2023-04-01T06:52:53;98697.56;;;10.53;100.00
3142;BME280;1581;51.568;6.998;2023-04-01T06:55:32;98695.13;;;10.52;100.00
3142;BME280;1581;51.568;6.998;2023-04-01T06:58:10;98698.91;;;10.67;100.00
3142;BME280;1581;51.568;6.998;2023-04-01T07:00:46;98699.03;;;10.61;100.00
3142;BME280;1581;51.568;6.998;2023-04-01T07:03:21;98697.19;;;10.61;100.00
3142;BME280;1581;51.568;6.998;2023-04-01T07:05:50;98701.94;;;10.59;100.00
3142;BME280;1581;51.568;6.998;2023-04-01T07:08:23;98706.69;;;10.57;100.00
3142;BME280;1581;51.568;6.998;2023-04-01T07:10:58;98701.31;;;10.69;100.00
3142;BME280;1581;51.568;6.998;2023-04-01T07:13:36;98703.19;;;10.68;100.00
3142;BME280;1581;51.568;6.998;2023-04-01T07:16:15;98706.44;;;10.59;100.00
3142;BME280;1581;51.568;6.998;2023-04-01T07:18:48;98709.88;;;10.71;100.00
3142;BME280;1581;51.568;6.998;2023-04-01T07:21:27;98714.22;;;10.60;100.00
3142;BME280;1581;51.568;6.998;2023-04-01T07:24:01;98711.63;;;10.65;100.00
3142;BME280;1581;51.568;6.998;2023-04-01T07:26:32;98723.13;;;10.66;100.00
3142;BME280;1581;51.568;6.998;2023-04-01T07:29:00;98720.41;;;10.77;100.00
3142;BME280;1581;51.568;6.998;2023-04-01T07:31:43;98728.06;;;10.74;100.00
3142;BME280;1581;51.568;6.998;2023-04-01T07:34:22;98729.34;;;10.71;100.00
3142;BME280;1581;51.568;6.998;2023-04-01T07:36:58;98735.59;;;10.65;100.00
3142;BME280;1581;51.568;6.998;2023-04-01T07:39:40;98724.66;;;10.50;100.00
3142;BME280;1581;51.568;6.998;2023-04-01T07:42:19;98733.91;;;10.59;100.00
3142;BME280;1581;51.568;6.998;2023-04-01T07:44:59;98738.59;;;10.69;100.00
3142;BME280;1581;51.568;6.998;2023-04-01T07:47:52;98730.78;;;10.62;100.00
3142;BME280;1581;51.568;6.998;2023-04-01T07:50:29;98737.84;;;10.85;100.00
3142;BME280;1581;51.568;6.998;2023-04-01T07:53:08;98737.19;;;10.78;100.00
3142;BME280;1581;51.568;6.998;2023-04-01T07:55:45;98743.66;;;10.82;100.00
3142;BME280;1581;51.568;6.998;2023-04-01T07:58:23;98743.50;;;10.88;100.00
3142;BME280;1581;51.568;6.998;2023-04-01T08:00:57;98751.97;;;10.85;100.00
3142;BME280;1581;51.568;6.998;2023-04-01T08:03:45;98746.19;;;10.88;100.00
3142;BME280;1581;51.568;6.998;2023-04-01T08:06:25;98760.41;;;10.94;100.00
3142;BME280;1581;51.568;6.998;2023-04-01T08:09:04;98754.94;;;11.00;100.00
3142;BME280;1581;51.568;6.998;2023-04-01T08:11:49;98767.06;;;11.08;100.00
3142;BME280;1581;51.568;6.998;2023-04-01T08:14:32;98762.25;;;10.93;100.00
3142;BME280;1581;51.568;6.998;2023-04-01T08:17:08;98765.16;;;10.92;100.00
3142;BME280;1581;51.568;6.998;2023-04-01T08:19:56;98772.09;;;10.93;100.00
3142;BME280;1581;51.568;6.998;2023-04-01T08:22:36;98775.28;;;10.78;100.00
3142;BME280;1581;51.568;6.998;2023-04-01T08:25:10;98779.00;;;11.05;100.00
3142;BME280;1581;51.568;6.998;2023-04-01T08:27:46;98772.16;;;11.09;100.00
3142;BME280;1581;51.568;6.998;2023-04-01T08:30:21;98783.06;;;11.24;100.00
3142;BME280;1581;51.568;6.998;2023-04-01T08:32:55;98788.00;;;11.15;100.00
3142;BME280;1581;51.568;6.998;2023-04-01T08:35:30;98787.94;;;11.27;100.00
3142;BME280;1581;51.568;6.998;2023-04-01T08:38:04;98784.97;;;11.40;100.00
3142;BME280;1581;51.568;6.998;2023-04-01T08:40:58;98793.25;;;11.55;100.00
3142;BME280;1581;51.568;6.998;2023-04-01T08:44:11;98801.03;;;11.45;100.00
3142;BME280;1581;51.568;6.998;2023-04-01T08:47:36;98797.59;;;11.44;100.00
3142;BME280;1581;51.568;6.998;2023-04-01T08:50:31;98794.75;;;11.34;100.00
3142;BME280;1581;51.568;6.998;2023-04-01T08:53:09;98800.28;;;11.33;100.00
3142;BME280;1581;51.568;6.998;2023-04-01T08:55:56;98810.88;;;11.56;100.00
3142;BME280;1581;51.568;6.998;2023-04-01T08:58:51;98810.19;;;11.49;100.00
3142;BME280;1581;51.568;6.998;2023-04-01T09:01:41;98813.00;;;11.42;100.00
3142;BME280;1581;51.568;6.998;2023-04-01T09:04:37;98825.63;;;11.47;100.00
3142;BME280;1581;51.568;6.998;2023-04-01T09:07:25;98825.09;;;11.61;100.00
3142;BME280;1581;51.568;6.998;2023-04-01T09:13:51;98837.06;;;11.59;100.00
3142;BME280;1581;51.568;6.998;2023-04-01T09:16:51;98833.03;;;11.89;100.00
3142;BME280;1581;51.568;6.998;2023-04-01T09:19:41;98832.88;;;11.79;100.00
3142;BME280;1581;51.568;6.998;2023-04-01T09:22:25;98831.25;;;11.95;100.00
3142;BME280;1581;51.568;6.998;2023-04-01T09:25:27;98837.72;;;11.99;100.00
3142;BME280;1581;51.568;6.998;2023-04-01T09:28:08;98838.53;;;12.15;100.00
3142;BME280;1581;51.568;6.998;2023-04-01T09:30:58;98849.28;;;12.20;100.00
3142;BME280;1581;51.568;6.998;2023-04-01T09:34:21;98859.81;;;12.27;100.00
3142;BME280;1581;51.568;6.998;2023-04-01T09:37:17;98858.19;;;12.26;100.00
3142;BME280;1581;51.568;6.998;2023-04-01T09:43:01;98867.50;;;12.07;100.00
3142;BME280;1581;51.568;6.998;2023-04-01T09:45:44;98868.47;;;12.01;100.00
3142;BME280;1581;51.568;6.998;2023-04-01T09:48:30;98871.72;;;12.03;100.00
3142;BME280;1581;51.568;6.998;2023-04-01T09:51:13;98871.88;;;11.97;100.00
3142;BME280;1581;51.568;6.998;2023-04-01T09:54:01;98873.97;;;11.95;100.00
3142;BME280;1581;51.568;6.998;2023-04-01T10:00:20;98879.28;;;11.78;100.00
3142;BME280;1581;51.568;6.998;2023-04-01T10:06:54;98882.81;;;12.11;100.00
3142;BME280;1581;51.568;6.998;2023-04-01T10:10:19;98889.75;;;12.12;100.00
3142;BME280;1581;51.568;6.998;2023-04-01T10:17:06;98887.78;;;12.24;100.00
3142;BME280;1581;51.568;6.998;2023-04-01T10:20:12;98890.06;;;12.32;100.00
3142;BME280;1581;51.568;6.998;2023-04-01T10:23:04;98902.75;;;12.42;100.00
3142;BME280;1581;51.568;6.998;2023-04-01T10:26:12;98901.41;;;12.39;100.00
3142;BME280;1581;51.568;6.998;2023-04-01T10:29:25;98902.75;;;12.42;100.00
3142;BME280;1581;51.568;6.998;2023-04-01T10:39:17;98903.47;;;12.04;100.00
3142;BME280;1581;51.568;6.998;2023-04-01T10:42:19;98911.44;;;12.32;100.00
3142;BME280;1581;51.568;6.998;2023-04-01T10:46:00;98913.28;;;12.32;100.00
3142;BME280;1581;51.568;6.998;2023-04-01T10:49:16;98902.84;;;12.30;100.00
3142;BME280;1581;51.568;6.998;2023-04-01T10:52:48;98917.31;;;12.34;100.00
3142;BME280;1581;51.568;6.998;2023-04-01T10:59:18;98922.34;;;12.31;100.00
3142;BME280;1581;51.568;6.998;2023-04-01T11:02:45;98925.19;;;12.24;100.00
3142;BME280;1581;51.568;6.998;2023-04-01T11:19:44;98951.63;;;12.75;100.00
3142;BME280;1581;51.568;6.998;2023-04-01T11:23:05;98945.81;;;12.62;100.00
3142;BME280;1581;51.568;6.998;2023-04-01T11:26:02;98955.03;;;12.71;100.00
3142;BME280;1581;51.568;6.998;2023-04-01T11:29:26;98952.19;;;12.77;100.00
3142;BME280;1581;51.568;6.998;2023-04-01T11:32:07;98972.03;;;12.97;100.00
3142;BME280;1581;51.568;6.998;2023-04-01T11:34:57;98964.19;;;12.75;100.00
3142;BME280;1581;51.568;6.998;2023-04-01T11:37:38;98964.75;;;12.60;100.00
3142;BME280;1581;51.568;6.998;2023-04-01T11:40:22;98972.63;;;12.50;100.00
3142;BME280;1581;51.568;6.998;2023-04-01T11:43:01;98967.13;;;12.40;100.00
3142;BME280;1581;51.568;6.998;2023-04-01T11:45:36;98977.53;;;12.42;100.00
3142;BME280;1581;51.568;6.998;2023-04-01T11:48:36;98979.59;;;12.51;100.00
3142;BME280;1581;51.568;6.998;2023-04-01T11:51:46;98981.28;;;12.57;100.00
3142;BME280;1581;51.568;6.998;2023-04-01T11:54:33;98987.75;;;12.61;100.00
3142;BME280;1581;51.568;6.998;2023-04-01T11:57:26;98987.75;;;12.61;100.00
3142;BME280;1581;51.568;6.998;2023-04-01T12:00:12;98999.34;;;12.50;100.00
3142;BME280;1581;51.568;6.998;2023-04-01T12:03:12;99003.13;;;12.71;100.00
3142;BME280;1581;51.568;6.998;2023-04-01T12:06:08;99006.38;;;12.56;100.00
3142;BME280;1581;51.568;6.998;2023-04-01T12:08:46;99001.84;;;12.40;100.00
3142;BME280;1581;51.568;6.998;2023-04-01T12:11:27;99013.59;;;12.56;100.00
3142;BME280;1581;51.568;6.998;2023-04-01T12:14:05;99009.84;;;12.73;100.00
3142;BME280;1581;51.568;6.998;2023-04-01T12:19:39;99024.66;;;12.64;100.00
3142;BME280;1581;51.568;6.998;2023-04-01T12:22:40;99026.47;;;12.91;100.00
3142;BME280;1581;51.568;6.998;2023-04-01T12:26:00;99032.31;;;12.72;100.00
3142;BME280;1581;51.568;6.998;2023-04-01T12:28:52;99039.91;;;12.80;100.00
3142;BME280;1581;51.568;6.998;2023-04-01T12:31:34;99043.78;;;12.56;100.00
3142;BME280;1581;51.568;6.998;2023-04-01T12:34:58;99042.47;;;12.59;100.00
3142;BME280;1581;51.568;6.998;2023-04-01T12:37:45;99048.72;;;12.64;100.00
3142;BME280;1581;51.568;6.998;2023-04-01T12:40:47;99052.59;;;12.40;100.00
3142;BME280;1581;51.568;6.998;2023-04-01T12:43:58;99055.97;;;12.36;100.00
3142;BME280;1581;51.568;6.998;2023-04-01T12:47:08;99061.50;;;12.46;100.00
3142;BME280;1581;51.568;6.998;2023-04-01T12:53:06;99074.06;;;12.17;100.00
3142;BME280;1581;51.568;6.998;2023-04-01T12:55:42;99068.03;;;12.38;100.00
3142;BME280;1581;51.568;6.998;2023-04-01T13:02:01;99078.78;;;12.27;100.00
3142;BME280;1581;51.568;6.998;2023-04-01T13:05:01;99084.06;;;12.38;100.00
3142;BME280;1581;51.568;6.998;2023-04-01T13:07:52;99087.78;;;12.09;100.00
3142;BME280;1581;51.568;6.998;2023-04-01T13:10:37;99091.06;;;12.28;100.00
3142;BME280;1581;51.568;6.998;2023-04-01T13:13:47;99090.59;;;12.31;100.00
3142;BME280;1581;51.568;6.998;2023-04-01T13:16:20;99099.78;;;12.23;100.00
3142;BME280;1581;51.568;6.998;2023-04-01T13:19:01;99094.09;;;12.31;100.00
3142;BME280;1581;51.568;6.998;2023-04-01T13:21:44;99099.75;;;12.35;100.00
3142;BME280;1581;51.568;6.998;2023-04-01T13:24:49;99102.91;;;12.04;100.00
3142;BME280;1581;51.568;6.998;2023-04-01T13:27:29;99110.59;;;12.28;100.00
3142;BME280;1581;51.568;6.998;2023-04-01T13:30:20;99105.56;;;12.32;100.00
3142;BME280;1581;51.568;6.998;2023-04-01T13:32:57;99118.66;;;12.17;100.00
3142;BME280;1581;51.568;6.998;2023-04-01T13:35:40;99117.50;;;12.13;100.00
3142;BME280;1581;51.568;6.998;2023-04-01T13:38:38;99120.09;;;12.36;100.00
3142;BME280;1581;51.568;6.998;2023-04-01T13:41:27;99117.81;;;12.44;100.00
3142;BME280;1581;51.568;6.998;2023-04-01T13:44:11;99116.91;;;12.39;100.00
3142;BME280;1581;51.568;6.998;2023-04-01T13:50:16;99131.09;;;12.39;100.00
3142;BME280;1581;51.568;6.998;2023-04-01T13:56:25;99135.41;;;12.40;100.00
3142;BME280;1581;51.568;6.998;2023-04-01T14:02:49;99142.91;;;12.71;100.00
3142;BME280;1581;51.568;6.998;2023-04-01T14:05:50;99148.56;;;12.58;100.00
3142;BME280;1581;51.568;6.998;2023-04-01T14:09:03;99153.91;;;12.30;100.00
3142;BME280;1581;51.568;6.998;2023-04-01T14:11:45;99152.75;;;12.54;100.00
3142;BME280;1581;51.568;6.998;2023-04-01T14:14:26;99155.38;;;12.66;100.00
3142;BME280;1581;51.568;6.998;2023-04-01T14:17:31;99154.28;;;12.50;100.00
3142;BME280;1581;51.568;6.998;2023-04-01T14:20:27;99154.19;;;12.45;100.00
3142;BME280;1581;51.568;6.998;2023-04-01T14:23:36;99158.72;;;12.45;100.00
3142;BME280;1581;51.568;6.998;2023-04-01T14:27:00;99166.69;;;12.56;100.00
3142;BME280;1581;51.568;6.998;2023-04-01T14:29:40;99175.38;;;12.80;100.00
3142;BME280;1581;51.568;6.998;2023-04-01T14:32:17;99172.13;;;12.89;100.00
3142;BME280;1581;51.568;6.998;2023-04-01T14:35:06;99178.13;;;12.68;100.00
3142;BME280;1581;51.568;6.998;2023-04-01T14:38:02;99180.72;;;12.80;100.00
3142;BME280;1581;51.568;6.998;2023-04-01T14:40:54;99181.84;;;12.67;100.00
3142;BME280;1581;51.568;6.998;2023-04-01T14:47:15;99179.91;;;12.63;100.00
3142;BME280;1581;51.568;6.998;2023-04-01T14:50:05;99193.94;;;13.14;100.00
3142;BME280;1581;51.568;6.998;2023-04-01T14:52:38;99188.94;;;13.17;100.00
3142;BME280;1581;51.568;6.998;2023-04-01T14:55:23;99187.22;;;13.28;100.00
3142;BME280;1581;51.568;6.998;2023-04-01T14:58:10;99194.69;;;13.26;100.00
3142;BME280;1581;51.568;6.998;2023-04-01T15:00:55;99196.13;;;13.17;100.00
3142;BME280;1581;51.568;6.998;2023-04-01T15:03:30;99199.38;;;13.19;100.00
3142;BME280;1581;51.568;6.998;2023-04-01T15:06:51;99209.66;;;13.10;100.00
3142;BME280;1581;51.568;6.998;2023-04-01T15:09:29;99204.00;;;13.23;100.00
3142;BME280;1581;51.568;6.998;2023-04-01T15:12:12;99210.09;;;13.19;100.00
3142;BME280;1581;51.568;6.998;2023-04-01T15:15:14;99209.63;;;13.22;100.00
3142;BME280;1581;51.568;6.998;2023-04-01T15:18:07;99213.38;;;13.09;100.00
3142;BME280;1581;51.568;6.998;2023-04-01T15:21:02;99226.13;;;13.19;100.00
3142;BME280;1581;51.568;6.998;2023-04-01T15:23:50;99229.84;;;13.18;100.00
3142;BME280;1581;51.568;6.998;2023-04-01T15:26:47;99226.09;;;12.75;100.00
3142;BME280;1581;51.568;6.998;2023-04-01T15:29:47;99239.41;;;12.97;100.00
3142;BME280;1581;51.568;6.998;2023-04-01T15:32:32;99230.81;;;12.95;100.00
3142;BME280;1581;51.568;6.998;2023-04-01T15:35:21;99244.34;;;12.78;100.00